Time;durP1;ratioP1;P1;durP2;ratioP2;P2;SDS_P1;SDS_P2;PMS_P1;PMS_P2;Temp;Humidity;BMP_temperature;BMP_pressure;BME280_temperature;BME280_humidity;BME280_pressure;Samples;Min_cycle;Max_cycle;Signal;HPM_P1;HPM_P2
2021/10/17 17:32:47;;;;;;;;;10.25;10.25;;;;;17.03;43.32;101735.78;5074651;27;49855;-72
2021/10/17 17:35:13;;;;;;;;;12.50;9.50;;;;;16.27;44.32;101663.34;5048490;28;49869;-66
2021/10/17 17:37:40;;;;;;;;;11.50;9.25;;;;;15.41;45.01;101580.09;5067399;28;49724;-68
2021/10/17 17:40:06;;;;;;;;;13.25;11.00;;;;;16.27;45.11;101758.72;5049263;28;50048;-70
2021/10/17 17:42:31;;;;;;;;;10.50;10.50;;;;;15.12;45.63;101613.19;5066055;28;49730;-72
2021/10/17 17:44:57;;;;;;;;;7.25;7.25;;;;;15.81;45.82;101760.69;5049330;28;59494;-74
2021/10/17 17:47:25;;;;;;;;;6.50;6.50;;;;;15.40;46.26;101715.91;5050615;27;49921;-83
2021/10/17 17:49:50;;;;;;;;;12.00;11.75;;;;;14.25;46.55;101559.69;5048493;27;51177;-72
2021/10/17 17:52:16;;;;;;;;;12.25;12.00;;;;;14.78;47.17;101673.44;5085020;27;68862;-75
2021/10/17 17:54:41;;;;;;;;;13.00;12.00;;;;;13.83;47.72;101549.19;5102374;27;50239;-80
2021/10/17 17:57:07;;;;;;;;;11.50;10.75;;;;;14.72;47.90;101712.94;5073710;27;49629;-74
2021/10/17 17:59:32;;;;;;;;;8.75;8.75;;;;;13.73;48.14;101574.50;5069099;27;62145;-67
2021/10/17 18:01:58;;;;;;;;;12.75;11.50;;;;;14.49;48.79;101707.25;5086264;27;49835;-68
2021/10/17 18:04:26;;;;;;;;;10.00;10.00;;;;;14.77;48.88;101758.88;5087609;27;50039;-67
2021/10/17 18:06:51;;;;;;;;;12.75;12.50;;;;;14.58;49.58;101757.63;5074347;27;49934;-69
2021/10/17 18:09:17;;;;;;;;;12.00;10.00;;;;;13.96;49.46;101663.84;5055514;27;50413;-78
2021/10/17 18:11:42;;;;;;;;;17.75;14.50;;;;;14.48;50.23;101762.69;5064450;27;50015;-66
2021/10/17 18:14:08;;;;;;;;;16.50;16.25;;;;;12.94;50.16;101542.81;5065363;27;49739;-76
2021/10/17 18:16:33;;;;;;;;;13.25;12.25;;;;;13.61;50.76;101693.00;5064895;27;59824;-66
2021/10/17 18:18:58;;;;;;;;;16.75;14.00;;;;;14.06;51.22;101760.84;5063453;28;50319;-75
2021/10/17 18:21:25;;;;;;;;;17.50;16.50;;;;;14.10;51.75;101782.97;5059415;27;63306;-76
2021/10/17 18:23:51;;;;;;;;;17.25;15.50;;;;;13.21;51.70;101637.50;5058466;27;49845;-75
2021/10/17 18:26:17;;;;;;;;;19.00;15.50;;;;;13.83;52.21;101748.91;5055907;28;49941;-76
2021/10/17 18:28:42;;;;;;;;;16.00;15.25;;;;;13.83;52.62;101760.34;5057364;27;49930;-69
2021/10/17 18:31:08;;;;;;;;;16.50;14.75;;;;;13.16;52.44;101672.53;5054292;28;49866;-68
2021/10/17 18:33:33;;;;;;;;;21.50;16.75;;;;;12.04;53.29;101476.50;5066798;28;49835;-70
2021/10/17 18:35:58;;;;;;;;;18.00;16.75;;;;;13.35;53.55;101702.03;5083592;27;50060;-75
2021/10/17 18:38:24;;;;;;;;;19.25;17.00;;;;;13.63;53.85;101753.69;5069861;27;49690;-74
2021/10/17 18:40:49;;;;;;;;;16.50;15.25;;;;;13.30;54.45;101714.19;5067035;28;50046;-75
2021/10/17 18:43:15;;;;;;;;;21.50;21.50;;;;;13.49;54.63;101760.38;5058501;28;49709;-73
2021/10/17 18:45:40;;;;;;;;;16.75;13.00;;;;;13.17;54.77;101718.22;5053626;28;49804;-72
2021/10/17 18:48:06;;;;;;;;;17.00;17.00;;;;;13.38;55.10;101778.56;5052361;28;73546;-73
2021/10/17 18:50:32;;;;;;;;;21.50;20.00;;;;;13.35;55.27;101775.88;5052932;28;49764;-68
2021/10/17 18:52:57;;;;;;;;;26.00;25.00;;;;;13.11;55.24;101732.13;5053350;28;49788;-68
2021/10/17 18:55:23;;;;;;;;;20.00;17.00;;;;;13.04;55.81;101729.34;5053492;28;49515;-77
2021/10/17 18:57:48;;;;;;;;;17.75;16.25;;;;;13.14;55.69;101753.34;5018397;28;50460;-68
2021/10/17 19:00:14;;;;;;;;;16.25;14.00;;;;;12.72;55.70;101710.91;5051985;28;66052;-68
2021/10/17 19:02:40;;;;;;;;;23.00;19.75;;;;;13.08;56.29;101776.00;5002490;28;49847;-75
2021/10/17 19:05:07;;;;;;;;;18.00;17.00;;;;;13.07;56.46;101788.28;5010998;27;50060;-73
2021/10/17 19:07:32;;;;;;;;;18.75;17.00;;;;;12.99;57.14;101778.38;5032881;28;50665;-72
2021/10/17 19:09:58;;;;;;;;;17.25;15.75;;;;;11.71;56.95;101554.47;5019317;28;50781;-72
2021/10/17 19:12:23;;;;;;;;;25.75;19.25;;;;;12.73;57.11;101739.03;5031244;28;49853;-74
2021/10/17 19:14:48;;;;;;;;;21.00;19.50;;;;;12.86;57.91;101793.88;5034123;28;49752;-74
2021/10/17 19:17:14;;;;;;;;;20.25;18.25;;;;;11.98;57.47;101628.97;5034711;28;52145;-74
2021/10/17 19:19:39;;;;;;;;;19.75;19.50;;;;;11.52;57.69;101586.34;5051351;28;50097;-76
2021/10/17 19:22:05;;;;;;;;;22.00;22.00;;;;;12.18;57.93;101708.50;5050966;28;50973;-73
2021/10/17 19:24:30;;;;;;;;;25.00;20.25;;;;;11.60;57.70;101645.31;5068776;27;50145;-74
2021/10/17 19:26:56;;;;;;;;;25.25;24.50;;;;;12.39;59.04;101766.16;5067419;27;49925;-76
2021/10/17 19:29:21;;;;;;;;;21.75;20.75;;;;;12.37;59.06;101773.13;5051535;28;50196;-78
2021/10/17 19:31:47;;;;;;;;;20.25;20.00;;;;;11.60;59.35;101690.03;5068535;27;50070;-78
2021/10/17 19:34:12;;;;;;;;;24.00;23.25;;;;;11.84;59.66;101722.38;5068462;27;50206;-74
2021/10/17 19:36:38;;;;;;;;;18.25;18.25;;;;;10.88;59.85;101567.72;5067293;28;50621;-74
2021/10/17 19:39:04;;;;;;;;;24.00;20.75;;;;;10.77;59.83;101561.22;5050670;28;49787;-76
2021/10/17 19:41:30;;;;;;;;;24.00;23.50;;;;;11.35;59.49;101654.19;5067732;28;49839;-74
2021/10/17 19:43:55;;;;;;;;;29.00;27.25;;;;;10.71;59.48;101563.66;5068498;27;49959;-76
2021/10/17 19:46:21;;;;;;;;;29.50;28.00;;;;;11.40;59.15;101699.94;5068542;28;50101;-72
2021/10/17 19:48:48;;;;;;;;;29.00;26.50;;;;;11.50;59.46;101688.84;5048989;28;58552;-74
2021/10/17 19:51:18;;;;;;;;;28.75;25.50;;;;;11.30;59.45;101661.94;5067729;27;50017;-72
2021/10/17 19:53:44;;;;;;;;;35.75;30.00;;;;;11.35;59.98;101668.22;5068783;27;49874;-73
2021/10/17 19:56:10;;;;;;;;;32.25;28.50;;;;;11.46;59.82;101685.22;5067501;27;50098;-75
2021/10/17 19:58:35;;;;;;;;;31.25;27.50;;;;;11.16;60.02;101645.69;5068103;27;50043;-73
2021/10/17 20:01:01;;;;;;;;;33.25;30.00;;;;;12.00;60.07;101779.03;5067974;28;59509;-71
2021/10/17 20:03:26;;;;;;;;;34.75;30.50;;;;;11.31;60.20;101661.09;5069062;28;49843;-74
2021/10/17 20:05:51;;;;;;;;;27.00;25.25;;;;;10.76;59.87;101580.47;5068447;28;50127;-75
2021/10/17 20:08:17;;;;;;;;;36.25;34.00;;;;;11.91;59.94;101787.50;5049222;28;61504;-75
2021/10/17 20:10:42;;;;;;;;;27.75;25.25;;;;;11.54;60.16;101702.97;5066908;28;58284;-74
2021/10/17 20:13:08;;;;;;;;;38.00;34.00;;;;;11.23;60.09;101670.44;5051916;28;50006;-73
2021/10/17 20:15:33;;;;;;;;;36.00;33.50;;;;;11.09;60.26;101655.94;5049175;28;50079;-74
2021/10/17 20:18:00;;;;;;;;;33.75;29.00;;;;;11.29;60.12;101696.03;5068318;28;49810;-72
2021/10/17 20:20:27;;;;;;;;;30.75;30.50;;;;;10.65;59.80;101566.09;5066047;28;50146;-72
2021/10/17 20:22:53;;;;;;;;;31.25;29.00;;;;;10.62;60.05;101573.88;5068771;27;50166;-73
2021/10/17 20:25:18;;;;;;;;;33.25;29.25;;;;;11.75;60.18;101762.41;5068178;28;50474;-72
2021/10/17 20:27:44;;;;;;;;;38.00;30.75;;;;;11.08;60.75;101676.09;5067684;28;50222;-73
2021/10/17 20:30:10;;;;;;;;;37.25;31.75;;;;;11.12;60.81;101692.88;5067263;28;50177;-72
2021/10/17 20:32:35;;;;;;;;;29.75;27.50;;;;;11.04;60.57;101660.19;5048758;27;50084;-73
2021/10/17 20:35:05;;;;;;;;;29.25;27.50;;;;;11.26;60.04;101701.19;5048626;28;66230;-72
2021/10/17 20:37:37;;;;;;;;;25.25;25.25;;;;;11.46;60.34;101781.59;5067100;28;50521;-71
2021/10/17 20:40:03;;;;;;;;;26.50;25.50;;;;;11.05;61.17;101683.88;5050384;28;49899;-71
2021/10/17 20:42:28;;;;;;;;;27.50;23.75;;;;;11.87;60.67;101838.25;5066582;28;50592;-73
2021/10/17 20:44:54;;;;;;;;;35.00;31.75;;;;;11.70;61.24;101821.88;5066094;28;68380;-67
2021/10/17 20:47:21;;;;;;;;;23.50;23.50;;;;;11.80;61.68;101849.44;5066555;28;71601;-75
2021/10/17 20:49:46;;;;;;;;;27.75;27.50;;;;;11.17;61.69;101749.09;5067822;28;49861;-70
2021/10/17 20:52:11;;;;;;;;;30.50;29.00;;;;;11.72;61.73;101861.38;5065479;28;50287;-69
2021/10/17 20:54:37;;;;;;;;;30.25;28.50;;;;;11.69;62.27;101862.19;5066760;28;73968;-69
2021/10/17 20:57:03;;;;;;;;;41.25;31.75;;;;;11.55;61.97;101836.25;5066145;28;50278;-68
2021/10/17 20:59:28;;;;;;;;;38.25;32.50;;;;;11.61;62.09;101853.13;5067419;27;49934;-68
2021/10/17 21:01:54;;;;;;;;;35.75;33.50;;;;;11.47;62.33;101831.63;5068624;27;50048;-67
2021/10/17 21:04:20;;;;;;;;;31.25;29.00;;;;;11.54;62.47;101860.75;5068599;28;50521;-71
2021/10/17 21:06:45;;;;;;;;;37.50;33.50;;;;;11.52;62.33;101862.44;5050590;28;49812;-76
2021/10/17 21:09:11;;;;;;;;;31.25;29.25;;;;;11.47;62.92;101867.53;5069466;28;50356;-70
2021/10/17 21:11:36;;;;;;;;;34.25;31.50;;;;;11.36;62.97;101861.91;5050433;28;55821;-78
2021/10/17 21:14:01;;;;;;;;;37.50;31.50;;;;;11.38;63.64;101861.94;5050918;28;50361;-79
2021/10/17 21:16:27;;;;;;;;;36.50;34.50;;;;;11.23;63.54;101841.28;5069502;28;50068;-81
2021/10/17 21:18:52;;;;;;;;;41.00;38.75;;;;;11.30;63.18;101856.47;5035267;28;65483;-81
2021/10/17 21:21:18;;;;;;;;;43.50;38.00;;;;;11.27;63.00;101861.56;5053147;28;49819;-77
2021/10/17 21:23:43;;;;;;;;;40.75;37.50;;;;;11.22;64.04;101862.28;5070282;28;72392;-73
2021/10/17 21:26:09;;;;;;;;;49.75;39.00;;;;;11.11;64.14;101849.66;5052200;28;49712;-75
2021/10/17 21:28:34;;;;;;;;;38.00;36.50;;;;;11.19;64.00;101868.28;5071018;28;49859;-78
2021/10/17 21:31:00;;;;;;;;;40.25;38.00;;;;;11.20;63.65;101875.38;5071118;28;49794;-79
2021/10/17 21:33:25;;;;;;;;;41.50;39.00;;;;;11.18;63.74;101872.66;5070631;28;50161;-77
2021/10/17 21:35:51;;;;;;;;;56.75;46.75;;;;;11.15;64.20;101882.19;5071165;28;49681;-78
2021/10/17 21:38:16;;;;;;;;;59.50;50.00;;;;;11.12;63.93;101889.97;5052221;28;67778;-77
2021/10/17 21:40:42;;;;;;;;;64.25;51.50;;;;;11.06;64.30;101884.47;5071598;28;49832;-79
2021/10/17 21:43:08;;;;;;;;;62.00;50.00;;;;;11.09;64.10;101889.81;5051869;28;76631;-73
2021/10/17 21:45:33;;;;;;;;;65.50;51.75;;;;;11.09;63.89;101887.19;5070973;28;49903;-70
2021/10/17 21:47:59;;;;;;;;;54.50;46.25;;;;;11.07;64.27;101883.63;5070199;28;68006;-75
2021/10/17 21:50:24;;;;;;;;;55.50;45.50;;;;;11.03;64.45;101887.88;5052058;28;55389;-67
2021/10/17 21:52:49;;;;;;;;;61.75;51.00;;;;;11.02;64.35;101886.09;5070401;28;50543;-68
2021/10/17 21:55:15;;;;;;;;;53.50;45.00;;;;;10.90;64.91;101859.34;5051915;28;70674;-67
2021/10/17 21:57:40;;;;;;;;;51.75;45.00;;;;;10.96;64.83;101866.56;5051771;28;69705;-70
2021/10/17 22:00:15;;;;;;;;;52.50;43.00;;;;;10.86;64.60;101841.69;5052900;28;49831;-67
2021/10/17 22:02:41;;;;;;;;;53.75;45.25;;;;;10.77;64.83;101847.50;5053478;28;50068;-67
2021/10/17 22:05:06;;;;;;;;;53.00;44.75;;;;;10.89;65.41;101883.84;5051450;28;69818;-68
2021/10/17 22:07:32;;;;;;;;;52.25;46.00;;;;;10.86;65.36;101889.88;5070526;28;49874;-70
2021/10/17 22:09:57;;;;;;;;;46.25;41.25;;;;;10.83;65.45;101884.53;5052656;28;50343;-68
2021/10/17 22:12:22;;;;;;;;;55.25;45.25;;;;;10.65;64.96;101869.81;5069859;28;64752;-68
2021/10/17 22:14:48;;;;;;;;;51.75;44.25;;;;;10.70;64.95;101873.47;5051425;28;72927;-67
2021/10/17 22:17:13;;;;;;;;;60.75;47.75;;;;;10.77;65.58;101899.16;5070030;28;58365;-69
2021/10/17 22:19:39;;;;;;;;;52.50;43.25;;;;;10.72;64.97;101898.09;5038244;28;63015;-71
2021/10/17 22:22:04;;;;;;;;;56.25;47.00;;;;;10.69;65.39;101903.19;5072926;28;73498;-68
2021/10/17 22:24:29;;;;;;;;;51.25;42.25;;;;;10.63;66.19;101892.47;5072879;28;71242;-70
2021/10/17 22:26:55;;;;;;;;;47.25;42.00;;;;;10.60;65.66;101907.25;5072935;27;68109;-67
2021/10/17 22:29:20;;;;;;;;;34.00;31.50;;;;;10.56;66.00;101891.34;5073443;28;61122;-66
2021/10/17 22:31:45;;;;;;;;;56.50;43.50;;;;;10.54;66.76;101898.28;5072368;27;69440;-67
2021/10/17 22:34:11;;;;;;;;;56.75;43.25;;;;;10.52;66.24;101897.31;5072887;28;58490;-67
2021/10/17 22:36:36;;;;;;;;;47.00;41.00;;;;;10.48;66.86;101901.53;5054729;28;68241;-67
2021/10/17 22:39:01;;;;;;;;;51.25;41.25;;;;;10.35;66.24;101877.38;5073111;27;64544;-68
2021/10/17 22:41:27;;;;;;;;;41.25;40.00;;;;;10.30;66.71;101871.94;5054395;28;68998;-67
2021/10/17 22:43:52;;;;;;;;;50.50;44.25;;;;;10.42;66.88;101897.75;5073293;28;58148;-67
2021/10/17 22:46:18;;;;;;;;;44.00;40.75;;;;;10.41;66.47;101895.97;5054654;28;69582;-67
2021/10/17 22:48:43;;;;;;;;;67.50;51.50;;;;;10.38;67.48;101888.00;5037788;28;65529;-67
2021/10/17 22:51:08;;;;;;;;;54.50;45.00;;;;;10.38;67.04;101888.00;5072528;28;69884;-67
2021/10/17 22:53:34;;;;;;;;;56.25;45.00;;;;;10.37;66.82;101888.84;5054729;28;65274;-67
2021/10/17 22:55:59;;;;;;;;;55.50;46.50;;;;;10.26;66.25;101877.91;5054380;28;70351;-66
2021/10/17 22:58:24;;;;;;;;;55.50;46.00;;;;;10.21;66.47;101871.53;5055555;28;49852;-67
2021/10/17 23:00:50;;;;;;;;;57.50;47.00;;;;;10.19;67.29;101873.22;5054216;28;69839;-67
2021/10/17 23:03:15;;;;;;;;;61.50;49.50;;;;;10.27;66.72;101891.09;5053672;28;68672;-66
2021/10/17 23:05:41;;;;;;;;;62.25;50.25;;;;;10.26;67.15;101888.41;5055102;28;49669;-66
2021/10/17 23:08:06;;;;;;;;;59.25;49.50;;;;;10.07;67.10;101859.63;5072463;28;65497;-66
2021/10/17 23:10:31;;;;;;;;;58.75;50.50;;;;;10.26;67.23;101896.28;5054155;28;70896;-67
2021/10/17 23:12:57;;;;;;;;;65.00;53.75;;;;;10.23;67.69;101896.13;5072128;28;67178;-66
2021/10/17 23:15:22;;;;;;;;;66.50;52.00;;;;;10.20;67.59;101896.00;5072401;28;61358;-67
2021/10/17 23:17:47;;;;;;;;;61.75;49.75;;;;;10.19;67.27;101900.34;5072371;28;57643;-70
2021/10/17 23:20:14;;;;;;;;;63.50;52.75;;;;;10.08;66.89;101875.41;5054515;28;49764;-82
2021/10/17 23:22:40;;;;;;;;;57.50;49.50;;;;;10.09;67.59;101871.06;5054615;28;49770;-73
2021/10/17 23:25:05;;;;;;;;;62.75;53.50;;;;;10.17;67.85;101888.00;5038135;28;49867;-74
2021/10/17 23:27:31;;;;;;;;;60.50;50.00;;;;;10.16;67.60;101886.22;5073075;28;49847;-74
2021/10/17 23:29:56;;;;;;;;;60.25;49.25;;;;;10.15;67.93;101890.56;5072616;28;50441;-79
2021/10/17 23:32:22;;;;;;;;;63.50;51.50;;;;;10.12;68.04;101889.53;5071357;27;72092;-73
2021/10/17 23:34:47;;;;;;;;;65.25;53.00;;;;;9.74;67.79;101828.53;5053540;28;70071;-68
2021/10/17 23:37:13;;;;;;;;;68.00;55.50;;;;;10.04;67.56;101887.53;5054740;28;49775;-69
2021/10/17 23:39:38;;;;;;;;;71.75;58.75;;;;;10.06;68.12;101895.44;5072427;28;50895;-72
2021/10/17 23:42:04;;;;;;;;;69.00;54.50;;;;;10.05;67.80;101898.91;5071831;28;68982;-80
2021/10/17 23:44:29;;;;;;;;;70.75;55.50;;;;;10.00;67.56;101887.31;5071868;28;68438;-78
2021/10/17 23:46:55;;;;;;;;;69.25;55.50;;;;;9.91;67.74;101881.69;5072777;28;49797;-75
2021/10/17 23:49:20;;;;;;;;;71.25;55.00;;;;;9.92;67.83;101889.63;5072023;28;49752;-70
2021/10/17 23:51:46;;;;;;;;;68.50;54.00;;;;;9.90;67.82;101890.41;5072327;28;50175;-75
2021/10/17 23:54:11;;;;;;;;;63.25;53.75;;;;;9.83;67.33;101870.88;5071991;27;56685;-69
2021/10/17 23:56:36;;;;;;;;;60.50;51.25;;;;;9.89;68.11;101884.25;5072676;28;49989;-68
2021/10/17 23:59:02;;;;;;;;;61.00;50.50;;;;;9.86;68.22;101880.63;5053433;28;69237;-76
